Time;durP1;ratioP1;P1;durP2;ratioP2;P2;SDS_P1;SDS_P2;PMS_P1;PMS_P2;Temp;Humidity;BMP_temperature;BMP_pressure;BME280_temperature;BME280_humidity;BME280_pressure;Samples;Min_cycle;Max_cycle;Signal;HPM_P1;HPM_P2
2023/05/11 00:00:39;;;;;;;5.00;1.20;;;12.50;99.90;;;;;;4972103;28;20886;-53
2023/05/11 00:03:05;;;;;;;5.30;1.30;;;12.60;99.90;;;;;;4971528;28;20471;-54
2023/05/11 00:05:30;;;;;;;5.32;0.90;;;12.50;25.30;;;;;;4972096;28;20392;-53
2023/05/11 00:07:56;;;;;;;4.50;0.93;;;12.60;99.90;;;;;;4971985;28;20464;-53
2023/05/11 00:10:22;;;;;;;5.40;1.10;;;12.50;99.90;;;;;;4970858;28;20607;-53
2023/05/11 00:12:47;;;;;;;4.30;1.10;;;12.40;1.00;;;;;;4972210;28;20388;-53
2023/05/11 00:15:14;;;;;;;4.57;0.83;;;12.40;1.00;;;;;;4971867;28;20884;-53
2023/05/11 00:17:40;;;;;;;5.30;1.20;;;12.30;1.00;;;;;;4971646;28;20475;-53
2023/05/11 00:20:06;;;;;;;4.20;0.80;;;12.40;1.00;;;;;;4971101;28;20889;-54
2023/05/11 00:22:32;;;;;;;4.32;0.98;;;12.40;1.00;;;;;;4971945;28;20386;-53
2023/05/11 00:24:57;;;;;;;4.50;0.90;;;12.40;1.00;;;;;;4972001;28;20483;-53
2023/05/11 00:27:23;;;;;;;4.70;1.37;;;12.50;1.00;;;;;;4970379;28;20624;-53
2023/05/11 00:29:48;;;;;;;4.90;0.90;;;12.50;1.00;;;;;;4971658;28;20412;-53
2023/05/11 00:32:14;;;;;;;4.97;1.10;;;12.60;1.00;;;;;;4970765;28;20735;-53
2023/05/11 00:34:40;;;;;;;7.10;1.10;;;12.50;1.00;;;;;;4971867;28;20392;-53
2023/05/11 00:37:05;;;;;;;5.10;1.13;;;12.60;1.00;;;;;;4970790;28;20815;-54
2023/05/11 00:39:31;;;;;;;5.00;1.20;;;12.60;1.00;;;;;;4971609;28;20388;-53
2023/05/11 00:41:56;;;;;;;4.65;1.00;;;12.50;1.00;;;;;;4971450;28;20452;-54
2023/05/11 00:44:22;;;;;;;6.07;0.90;;;12.50;1.00;;;;;;4970876;28;20423;-53
2023/05/11 00:46:48;;;;;;;5.13;0.90;;;12.50;1.00;;;;;;4970174;28;20434;-54
2023/05/11 00:49:16;;;;;;;4.50;0.90;;;12.50;1.00;;;;;;4970650;28;20436;-54
2023/05/11 00:51:42;;;;;;;6.13;1.10;;;12.50;1.00;;;;;;4971407;28;20553;-54
2023/05/11 00:54:13;;;;;;;4.60;1.10;;;12.50;1.00;;;;;;4970923;28;20742;-53
2023/05/11 00:56:40;;;;;;;4.40;0.90;;;12.60;1.00;;;;;;4971078;28;20399;-53
2023/05/11 00:59:07;;;;;;;4.60;1.10;;;12.60;1.00;;;;;;4970652;28;20488;-54
2023/05/11 01:01:34;;;;;;;4.60;1.10;;;12.60;1.00;;;;;;4971044;28;20838;-54
2023/05/11 01:04:01;;;;;;;5.38;1.00;;;12.60;1.00;;;;;;4970543;28;20794;-53
2023/05/11 01:06:45;;;;;;;4.20;0.70;;;12.60;1.00;;;;;;4970568;28;20491;-54
2023/05/11 01:09:48;;;;;;;4.68;1.00;;;12.50;1.00;;;;;;4970308;28;20510;-54
2023/05/11 01:12:49;;;;;;;4.60;0.90;;;12.60;1.00;;;;;;4970047;28;20384;-54
2023/05/11 01:15:35;;;;;;;7.30;1.10;;;12.60;1.00;;;;;;4969681;28;20495;-54
2023/05/11 01:18:14;;;;;;;5.07;1.00;;;12.60;1.00;;;;;;4970635;28;20384;-54
2023/05/11 01:20:45;;;;;;;5.10;0.80;;;12.60;99.90;;;;;;4970949;28;20494;-54
2023/05/11 01:23:38;;;;;;;4.32;0.80;;;12.60;99.90;;;;;;4970439;28;20392;-54
2023/05/11 01:26:22;;;;;;;6.28;1.10;;;12.60;99.90;;;;;;4970488;28;20416;-54
2023/05/11 01:29:22;;;;;;;4.80;1.00;;;12.70;99.90;;;;;;4970896;28;20397;-54
2023/05/11 01:31:52;;;;;;;4.85;1.00;;;12.60;88.90;;;;;;4970668;28;20389;-54
2023/05/11 01:34:22;;;;;;;4.80;1.10;;;12.60;99.90;;;;;;4969951;28;20384;-54
2023/05/11 01:36:58;;;;;;;4.77;1.03;;;12.70;99.90;;;;;;4970944;28;20418;-54
2023/05/11 01:39:31;;;;;;;4.50;0.85;;;12.70;99.90;;;;;;4970639;28;21105;-54
2023/05/11 01:42:00;;;;;;;5.30;1.00;;;12.80;1.00;;;;;;4970793;28;20388;-54
2023/05/11 01:44:30;;;;;;;4.40;0.80;;;12.80;99.90;;;;;;4969724;28;20838;-54
2023/05/11 01:46:59;;;;;;;4.70;0.93;;;12.80;99.90;;;;;;4970460;28;20426;-54
2023/05/11 01:49:26;;;;;;;5.43;0.98;;;12.80;99.90;;;;;;4970263;28;20388;-54
2023/05/11 01:51:53;;;;;;;4.77;1.10;;;12.80;95.10;;;;;;4970881;28;20395;-54
2023/05/11 01:54:20;;;;;;;5.27;1.30;;;12.70;99.90;;;;;;4969997;28;20399;-54
2023/05/11 01:56:48;;;;;;;5.80;1.03;;;12.70;99.90;;;;;;4970745;28;20982;-54
2023/05/11 01:59:16;;;;;;;4.70;1.00;;;12.70;99.90;;;;;;4974087;28;20446;-54
2023/05/11 02:01:41;;;;;;;6.13;1.00;;;12.70;1.00;;;;;;4974575;28;20479;-54
2023/05/11 02:04:09;;;;;;;5.90;1.00;;;12.70;99.90;;;;;;4973257;28;20964;-54
2023/05/11 02:06:36;;;;;;;5.20;0.90;;;12.70;99.90;;;;;;4974230;28;20431;-54
2023/05/11 02:09:02;;;;;;;5.13;0.80;;;12.80;99.90;;;;;;4973628;28;20866;-55
2023/05/11 02:11:31;;;;;;;4.57;1.00;;;12.70;1.00;;;;;;4974609;28;20419;-53
2023/05/11 02:13:58;;;;;;;4.50;1.00;;;12.70;1.00;;;;;;4973983;28;20815;-54
2023/05/11 02:16:26;;;;;;;4.72;1.05;;;12.70;1.00;;;;;;4973177;28;20415;-54
2023/05/11 02:18:53;;;;;;;5.43;0.95;;;12.60;1.00;;;;;;4974140;28;20443;-54
2023/05/11 02:21:19;;;;;;;4.88;1.00;;;12.60;1.00;;;;;;4973450;28;20467;-54
2023/05/11 02:23:47;;;;;;;5.50;1.05;;;12.60;1.00;;;;;;4973332;28;20494;-54
2023/05/11 02:26:15;;;;;;;4.68;0.95;;;12.70;1.00;;;;;;4973121;28;20484;-54
2023/05/11 02:28:42;;;;;;;5.20;1.10;;;12.80;1.00;;;;;;4973251;28;20417;-54
2023/05/11 02:31:26;;;;;;;4.88;1.20;;;12.70;1.00;;;;;;4972528;28;20948;-54
2023/05/11 02:33:54;;;;;;;4.80;1.00;;;12.70;1.00;;;;;;4974019;28;20408;-54
2023/05/11 02:36:22;;;;;;;6.20;1.10;;;12.70;1.00;;;;;;4972587;28;20388;-54
2023/05/11 02:38:53;;;;;;;4.88;1.08;;;12.80;1.00;;;;;;4956736;28;20400;-54
2023/05/11 02:41:26;;;;;;;5.35;0.90;;;12.80;1.00;;;;;;4973071;28;20384;-53
2023/05/11 02:43:54;;;;;;;5.13;1.08;;;12.80;1.00;;;;;;4973672;28;20380;-54
2023/05/11 02:46:27;;;;;;;5.90;0.90;;;12.70;1.00;;;;;;4972949;28;20886;-54
2023/05/11 02:48:56;;;;;;;4.57;1.10;;;12.70;1.00;;;;;;4973421;28;20482;-54
2023/05/11 02:51:27;;;;;;;5.05;1.08;;;12.70;1.00;;;;;;4972586;28;20380;-54
2023/05/11 02:53:56;;;;;;;4.90;1.10;;;12.70;1.00;;;;;;4974021;28;20387;-54
2023/05/11 02:56:23;;;;;;;5.00;1.00;;;12.70;1.00;;;;;;4972666;28;20403;-54
2023/05/11 02:58:49;;;;;;;5.20;1.10;;;12.60;1.00;;;;;;4973166;28;20431;-54
2023/05/11 03:01:16;;;;;;;4.77;1.10;;;12.60;1.00;;;;;;4972270;28;20446;-54
2023/05/11 03:03:41;;;;;;;4.30;1.10;;;12.50;1.00;;;;;;4972477;28;20392;-54
2023/05/11 03:06:07;;;;;;;5.10;1.10;;;12.60;44.50;;;;;;4972988;28;20522;-54
2023/05/11 03:08:33;;;;;;;5.60;1.20;;;12.70;1.00;;;;;;4967943;28;20463;-53
2023/05/11 03:11:00;;;;;;;4.38;0.93;;;12.60;87.50;;;;;;4955226;28;20386;-54
2023/05/11 03:13:27;;;;;;;4.78;1.00;;;12.60;1.00;;;;;;4953022;29;20469;-54
2023/05/11 03:15:54;;;;;;;5.03;1.40;;;12.60;76.70;;;;;;4953656;29;20441;-54
2023/05/11 03:18:22;;;;;;;4.70;1.20;;;12.60;99.90;;;;;;4971917;28;20394;-54
2023/05/11 03:20:49;;;;;;;5.68;1.30;;;12.50;93.00;;;;;;4973060;28;20392;-54
2023/05/11 03:23:16;;;;;;;4.63;1.23;;;12.40;99.90;;;;;;4972190;28;20850;-54
2023/05/11 03:25:43;;;;;;;4.50;1.10;;;12.40;99.90;;;;;;4972914;28;20388;-54
2023/05/11 03:28:09;;;;;;;5.30;1.10;;;12.50;99.90;;;;;;4972688;28;20778;-54
2023/05/11 03:30:39;;;;;;;5.20;1.30;;;12.50;99.90;;;;;;4971394;28;20421;-54
2023/05/11 03:33:05;;;;;;;4.55;1.13;;;12.50;96.20;;;;;;4972410;28;20405;-55
2023/05/11 03:35:33;;;;;;;5.80;1.30;;;12.50;99.90;;;;;;4972653;28;20427;-54
2023/05/11 03:37:59;;;;;;;5.10;1.40;;;12.50;99.90;;;;;;4973006;28;20416;-54
2023/05/11 03:40:28;;;;;;;5.45;1.30;;;12.50;99.90;;;;;;4971996;28;20563;-54
2023/05/11 03:42:56;;;;;;;4.80;1.00;;;12.40;99.90;;;;;;4972666;28;20456;-53
2023/05/11 03:45:22;;;;;;;4.77;1.00;;;12.30;99.90;;;;;;4972018;28;20388;-54
2023/05/11 03:47:49;;;;;;;4.88;1.20;;;12.30;99.90;;;;;;4972297;28;20519;-54
2023/05/11 03:50:16;;;;;;;4.90;1.20;;;12.20;99.90;;;;;;4971279;28;20392;-54
2023/05/11 03:52:42;;;;;;;5.60;1.23;;;12.30;99.90;;;;;;4955182;28;20396;-54
2023/05/11 03:55:08;;;;;;;4.20;1.00;;;12.40;99.90;;;;;;4953044;28;20829;-55
2023/05/11 03:57:35;;;;;;;4.50;0.90;;;12.30;36.80;;;;;;4953155;29;20464;-54
2023/05/11 04:00:01;;;;;;;4.67;1.10;;;12.30;52.70;;;;;;4953182;29;20409;-54
2023/05/11 04:02:27;;;;;;;4.70;1.00;;;12.30;23.60;;;;;;4952033;29;20396;-53
2023/05/11 04:04:52;;;;;;;4.30;1.00;;;12.40;1.00;;;;;;4961447;28;20391;-54
2023/05/11 04:07:19;;;;;;;5.17;1.10;;;12.40;1.00;;;;;;4971767;28;20866;-53
2023/05/11 04:09:44;;;;;;;5.20;1.10;;;12.40;1.00;;;;;;4972114;28;20435;-54
2023/05/11 04:12:10;;;;;;;5.00;1.20;;;12.20;1.00;;;;;;4971100;28;20397;-54
2023/05/11 04:14:36;;;;;;;6.17;1.30;;;12.20;1.00;;;;;;4972078;28;20670;-54
2023/05/11 04:17:01;;;;;;;5.78;1.40;;;12.30;99.90;;;;;;4971591;28;20411;-54
2023/05/11 04:19:27;;;;;;;5.50;1.30;;;12.20;96.80;;;;;;4971162;28;20420;-54
2023/05/11 04:21:52;;;;;;;5.20;1.50;;;12.20;76.90;;;;;;4972113;28;20410;-53
2023/05/11 04:24:18;;;;;;;6.95;1.50;;;12.30;42.50;;;;;;4971402;28;20868;-53
2023/05/11 04:26:44;;;;;;;5.10;1.30;;;12.20;99.90;;;;;;4971986;28;20412;-54
2023/05/11 04:29:10;;;;;;;5.57;1.40;;;12.30;99.90;;;;;;4970928;28;20554;-54
2023/05/11 04:31:35;;;;;;;7.50;1.80;;;12.10;99.90;;;;;;4971923;28;20795;-53
2023/05/11 04:34:01;;;;;;;5.13;1.48;;;12.20;22.30;;;;;;4971361;28;20801;-54
2023/05/11 04:36:27;;;;;;;5.20;1.63;;;12.20;99.90;;;;;;4970895;28;21074;-54
2023/05/11 04:38:52;;;;;;;6.75;1.70;;;12.40;99.90;;;;;;4965796;28;20452;-54
2023/05/11 04:41:18;;;;;;;7.00;1.67;;;12.40;2.80;;;;;;4971330;28;20403;-54
2023/05/11 04:43:43;;;;;;;5.85;1.35;;;12.40;40.10;;;;;;4970528;28;20503;-54
2023/05/11 04:46:09;;;;;;;5.60;1.40;;;12.40;60.80;;;;;;4961001;28;20483;-54
2023/05/11 04:48:35;;;;;;;5.00;1.30;;;12.40;26.20;;;;;;4969814;28;20405;-54
2023/05/11 04:51:05;;;;;;;5.40;1.20;;;12.40;28.00;;;;;;4963041;28;20416;-54
2023/05/11 04:53:32;;;;;;;5.10;1.40;;;13.40;51.40;;;;;;4951929;29;20479;-54
2023/05/11 04:55:57;;;;;;;5.63;1.30;;;12.60;1.00;;;;;;4952024;28;20398;-54
2023/05/11 04:58:23;;;;;;;6.65;1.40;;;12.60;1.00;;;;;;4953266;28;20414;-53
2023/05/11 05:00:49;;;;;;;6.23;1.53;;;12.60;1.00;;;;;;4951866;29;20899;-54
2023/05/11 05:03:15;;;;;;;4.88;1.27;;;12.60;1.00;;;;;;4950600;28;20413;-54
2023/05/11 05:05:40;;;;;;;6.10;1.50;;;12.80;1.00;;;;;;4952051;28;20401;-54
2023/05/11 05:08:06;;;;;;;6.10;1.30;;;12.80;1.00;;;;;;4950911;29;20538;-54
2023/05/11 05:10:33;;;;;;;5.40;1.50;;;12.80;1.00;;;;;;4951584;29;20390;-54
2023/05/11 05:12:58;;;;;;;5.57;1.42;;;12.70;1.00;;;;;;4951442;29;20473;-53
2023/05/11 05:15:24;;;;;;;5.97;1.63;;;12.70;1.00;;;;;;4951336;29;20538;-54
2023/05/11 05:17:50;;;;;;;5.95;1.70;;;12.70;1.00;;;;;;4967302;28;20380;-54
2023/05/11 05:20:15;;;;;;;5.37;1.47;;;12.70;1.00;;;;;;4969896;28;20380;-54
2023/05/11 05:22:41;;;;;;;6.10;1.60;;;12.80;1.00;;;;;;4971472;28;20381;-54
2023/05/11 05:25:07;;;;;;;6.90;1.60;;;12.90;1.00;;;;;;4969601;28;20491;-55
2023/05/11 05:27:33;;;;;;;4.85;1.30;;;12.90;1.00;;;;;;4968368;28;20504;-54
2023/05/11 05:29:58;;;;;;;6.18;1.75;;;13.00;1.00;;;;;;4969505;28;20431;-54
2023/05/11 05:32:24;;;;;;;4.80;1.48;;;12.90;1.00;;;;;;4971658;28;20403;-53
2023/05/11 05:34:50;;;;;;;4.93;1.40;;;12.80;99.90;;;;;;4975493;28;20427;-54
2023/05/11 05:37:15;;;;;;;5.47;1.70;;;12.70;1.00;;;;;;4976339;28;20862;-54
2023/05/11 05:39:41;;;;;;;5.10;1.30;;;12.70;1.00;;;;;;4977404;28;20470;-53
2023/05/11 05:42:07;;;;;;;5.85;1.45;;;12.80;1.00;;;;;;4976816;28;20392;-55
2023/05/11 05:44:32;;;;;;;5.00;1.30;;;12.80;99.90;;;;;;4977598;28;20798;-54
2023/05/11 05:46:58;;;;;;;5.28;1.70;;;12.80;1.00;;;;;;4977047;28;20968;-54
2023/05/11 05:49:23;;;;;;;5.25;1.50;;;12.80;99.90;;;;;;4976267;28;20391;-54
2023/05/11 05:51:50;;;;;;;5.30;1.50;;;12.80;99.90;;;;;;4977479;28;20376;-54
2023/05/11 05:54:16;;;;;;;7.53;2.13;;;12.80;99.90;;;;;;4976402;28;20400;-54
2023/05/11 05:56:41;;;;;;;5.10;1.50;;;12.90;99.90;;;;;;4977272;28;20379;-53
2023/05/11 05:59:12;;;;;;;8.77;1.90;;;13.10;99.90;;;;;;4976790;28;20840;-54
2023/05/11 06:01:43;;;;;;;4.80;1.50;;;12.90;99.90;;;;;;4977439;28;20467;-54
2023/05/11 06:04:09;;;;;;;6.80;1.90;;;13.00;1.00;;;;;;4974401;28;20944;-54
2023/05/11 06:06:34;;;;;;;6.05;1.60;;;13.10;99.90;;;;;;4964186;28;20441;-54
2023/05/11 06:09:00;;;;;;;5.50;1.50;;;13.20;1.00;;;;;;4967114;28;20466;-54
2023/05/11 06:11:26;;;;;;;6.45;1.55;;;13.30;99.90;;;;;;4957258;28;20752;-54
2023/05/11 06:13:51;;;;;;;5.43;1.40;;;13.40;99.90;;;;;;4964600;28;20430;-54
2023/05/11 06:16:17;;;;;;;5.38;1.88;;;13.40;99.90;;;;;;4958857;28;20396;-54
2023/05/11 06:18:42;;;;;;;5.73;1.60;;;13.30;99.90;;;;;;4977033;28;20903;-54
2023/05/11 06:21:08;;;;;;;5.50;2.00;;;13.20;99.90;;;;;;4977079;28;20405;-55
2023/05/11 06:23:34;;;;;;;5.07;1.45;;;13.20;99.90;;;;;;4976470;28;20873;-53
2023/05/11 06:26:00;;;;;;;5.57;1.60;;;13.20;99.90;;;;;;4976651;28;20391;-54
2023/05/11 06:28:25;;;;;;;5.70;2.00;;;13.30;99.90;;;;;;4976855;28;20739;-53
2023/05/11 06:30:51;;;;;;;6.43;1.87;;;13.40;99.90;;;;;;4976569;28;20753;-54
2023/05/11 06:33:16;;;;;;;7.20;2.40;;;13.40;1.00;;;;;;4975892;28;20396;-54
2023/05/11 06:35:42;;;;;;;5.43;1.77;;;13.40;49.10;;;;;;4976943;28;20399;-54
2023/05/11 06:38:07;;;;;;;7.80;2.60;;;13.50;99.90;;;;;;4976955;28;20929;-54
2023/05/11 06:40:33;;;;;;;5.80;2.00;;;13.40;99.90;;;;;;4960649;28;20804;-54
2023/05/11 06:42:59;;;;;;;7.78;2.42;;;13.40;99.90;;;;;;4956836;28;20488;-53
2023/05/11 06:45:24;;;;;;;7.73;2.50;;;13.40;99.90;;;;;;4952357;29;20740;-54
2023/05/11 06:47:50;;;;;;;6.30;2.50;;;13.30;99.90;;;;;;4969166;28;20420;-54
2023/05/11 06:50:15;;;;;;;8.80;2.30;;;13.40;1.00;;;;;;4972657;28;20399;-54
2023/05/11 06:52:41;;;;;;;6.10;2.30;;;13.40;99.90;;;;;;4973413;28;20463;-54
2023/05/11 06:55:11;;;;;;;8.30;2.50;;;13.60;99.90;;;;;;4973281;28;20403;-54
2023/05/11 06:57:37;;;;;;;8.20;2.70;;;12.30;1.00;;;;;;4972957;28;20507;-54
2023/05/11 07:00:03;;;;;;;7.35;2.10;;;13.60;1.00;;;;;;4973172;28;20479;-54
2023/05/11 07:02:29;;;;;;;9.38;2.63;;;13.70;60.00;;;;;;4972166;28;20384;-54
2023/05/11 07:04:54;;;;;;;9.20;2.60;;;13.80;1.00;;;;;;4972564;28;20388;-54
2023/05/11 07:07:21;;;;;;;7.95;2.70;;;13.70;1.00;;;;;;4972443;28;20404;-54
2023/05/11 07:09:47;;;;;;;6.65;2.60;;;13.70;99.90;;;;;;4972901;28;20392;-54
2023/05/11 07:12:12;;;;;;;6.20;2.60;;;13.60;99.90;;;;;;4972389;28;20889;-54
2023/05/11 07:14:38;;;;;;;7.10;3.00;;;13.60;1.00;;;;;;4973069;28;20404;-54
2023/05/11 07:17:04;;;;;;;8.98;3.10;;;13.50;99.90;;;;;;4972950;28;20403;-54
2023/05/11 07:19:30;;;;;;;7.10;2.90;;;13.50;1.00;;;;;;4972158;28;20381;-54
2023/05/11 07:21:55;;;;;;;7.83;2.77;;;13.50;1.00;;;;;;4972905;28;20400;-54
2023/05/11 07:24:21;;;;;;;7.53;3.00;;;13.70;99.90;;;;;;4971962;28;20455;-54
2023/05/11 07:26:48;;;;;;;6.93;2.73;;;13.80;1.00;;;;;;4972753;28;20447;-54
2023/05/11 07:29:14;;;;;;;7.40;3.00;;;14.10;1.00;;;;;;4971356;28;20419;-54
2023/05/11 07:31:41;;;;;;;7.10;3.13;;;14.10;99.90;;;;;;4972536;28;20401;-54
2023/05/11 07:34:07;;;;;;;7.55;2.90;;;14.10;1.00;;;;;;4972369;28;20431;-54
2023/05/11 07:36:33;;;;;;;7.10;3.10;;;14.10;1.00;;;;;;4971922;28;20396;-54
2023/05/11 07:39:00;;;;;;;8.85;2.95;;;14.10;99.90;;;;;;4972419;28;20505;-54
2023/05/11 07:41:29;;;;;;;8.10;3.10;;;14.00;1.00;;;;;;4971670;28;20401;-54
2023/05/11 07:43:55;;;;;;;8.82;3.13;;;14.00;1.00;;;;;;4972276;28;20404;-54
2023/05/11 07:46:21;;;;;;;6.55;2.72;;;14.10;1.00;;;;;;4971656;28;20420;-54
2023/05/11 07:48:46;;;;;;;7.70;3.10;;;14.20;1.00;;;;;;4972253;28;20488;-54
2023/05/11 07:51:12;;;;;;;6.88;2.60;;;14.30;99.90;;;;;;4971462;28;20393;-54
2023/05/11 07:53:38;;;;;;;6.70;2.67;;;14.50;1.00;;;;;;4972937;28;20388;-55
2023/05/11 07:56:04;;;;;;;6.93;2.50;;;14.70;1.00;;;;;;4971931;28;20384;-54
2023/05/11 07:58:31;;;;;;;7.10;2.80;;;14.70;99.90;;;;;;4971147;28;20400;-54
2023/05/11 08:00:57;;;;;;;6.45;2.10;;;14.70;99.90;;;;;;4972389;28;20395;-54
2023/05/11 08:03:23;;;;;;;7.22;2.40;;;14.60;1.00;;;;;;4971255;28;20380;-54
2023/05/11 08:05:49;;;;;;;6.53;2.60;;;14.60;99.90;;;;;;4972185;28;20497;-54
2023/05/11 08:08:15;;;;;;;9.40;2.95;;;14.60;1.00;;;;;;4971371;28;20957;-54
2023/05/11 08:10:41;;;;;;;6.90;2.70;;;14.60;1.00;;;;;;4972256;28;20853;-54
2023/05/11 08:13:07;;;;;;;7.95;3.38;;;14.50;84.60;;;;;;4971872;28;20432;-54
2023/05/11 08:15:32;;;;;;;7.32;2.60;;;14.20;99.90;;;;;;4971651;28;20385;-54
2023/05/11 08:17:59;;;;;;;7.03;2.60;;;14.30;99.90;;;;;;4971596;28;20858;-54
2023/05/11 08:20:25;;;;;;;7.70;3.00;;;14.40;99.90;;;;;;4971383;28;20392;-54
2023/05/11 08:22:50;;;;;;;7.32;2.47;;;14.30;99.90;;;;;;4971839;28;20398;-54
2023/05/11 08:25:16;;;;;;;6.70;2.30;;;14.40;1.00;;;;;;4971013;28;20388;-54
2023/05/11 08:27:42;;;;;;;6.50;2.70;;;14.40;99.90;;;;;;4971675;28;20449;-54
2023/05/11 08:30:08;;;;;;;7.10;2.30;;;14.30;99.90;;;;;;4971259;28;20869;-54
2023/05/11 08:32:35;;;;;;;7.35;2.58;;;14.30;1.00;;;;;;4971316;28;20389;-54
2023/05/11 08:35:02;;;;;;;9.13;3.00;;;14.40;99.90;;;;;;4971236;28;20428;-54
2023/05/11 08:37:28;;;;;;;6.50;2.38;;;14.60;1.00;;;;;;4970320;28;20487;-54
2023/05/11 08:39:55;;;;;;;7.43;2.13;;;14.90;99.90;;;;;;4971794;28;20479;-54
2023/05/11 08:42:23;;;;;;;6.18;2.30;;;15.10;1.00;;;;;;4970752;28;20404;-54
2023/05/11 08:44:52;;;;;;;6.32;2.30;;;14.80;99.90;;;;;;4970900;28;20786;-54
2023/05/11 08:47:18;;;;;;;6.80;2.10;;;14.90;1.00;;;;;;4970071;28;20849;-54
2023/05/11 08:49:44;;;;;;;7.25;2.67;;;15.00;99.90;;;;;;4971027;28;20423;-54
2023/05/11 08:52:12;;;;;;;7.25;2.63;;;15.00;1.00;;;;;;4971335;28;20407;-54
2023/05/11 08:54:38;;;;;;;6.70;2.53;;;14.80;58.60;;;;;;4971577;28;20444;-54
2023/05/11 08:57:05;;;;;;;6.18;2.35;;;14.80;1.00;;;;;;4971342;28;20853;-54
2023/05/11 08:59:32;;;;;;;7.22;2.50;;;14.60;1.00;;;;;;4970906;28;20396;-54
2023/05/11 09:01:59;;;;;;;7.78;2.40;;;14.50;21.20;;;;;;4971051;28;20400;-54
2023/05/11 09:04:26;;;;;;;6.60;1.77;;;14.40;1.00;;;;;;4970350;28;20434;-54
2023/05/11 09:06:52;;;;;;;7.80;2.50;;;14.30;1.00;;;;;;4970454;28;20417;-54
2023/05/11 09:09:17;;;;;;;5.75;1.90;;;14.40;1.00;;;;;;4970226;28;20790;-54
2023/05/11 09:11:44;;;;;;;7.40;2.00;;;14.40;99.90;;;;;;4970506;28;20427;-54
2023/05/11 09:14:11;;;;;;;7.28;1.90;;;14.30;99.90;;;;;;4970538;28;20463;-55
2023/05/11 09:16:36;;;;;;;7.72;2.60;;;14.30;85.60;;;;;;4971061;28;20562;-54
2023/05/11 09:19:03;;;;;;;7.57;2.35;;;14.30;99.90;;;;;;4953250;28;20393;-54
2023/05/11 09:21:31;;;;;;;8.07;2.45;;;14.20;1.00;;;;;;4970146;28;20391;-54
2023/05/11 09:24:00;;;;;;;6.05;2.00;;;14.10;55.50;;;;;;4970528;28;20451;-54
2023/05/11 09:26:30;;;;;;;7.93;2.47;;;14.00;99.90;;;;;;4969658;28;20427;-54
2023/05/11 09:28:57;;;;;;;6.80;2.50;;;14.30;1.00;;;;;;4970408;28;20424;-54
2023/05/11 09:31:58;;;;;;;6.18;2.20;;;14.80;99.90;;;;;;4970023;28;20400;-55
2023/05/11 09:34:24;;;;;;;8.70;2.95;;;15.00;99.90;;;;;;4891203;29;20410;-54
2023/05/11 09:36:54;;;;;;;8.20;2.50;;;15.00;99.90;;;;;;4954398;28;20531;-54
2023/05/11 09:39:35;;;;;;;8.03;2.43;;;14.80;99.90;;;;;;4970133;28;20472;-54
2023/05/11 09:42:14;;;;;;;7.47;2.73;;;14.60;99.90;;;;;;4970693;28;20430;-54
2023/05/11 09:44:40;;;;;;;5.95;2.10;;;14.50;99.90;;;;;;4971107;28;20522;-54
2023/05/11 09:47:17;;;;;;;6.40;2.00;;;14.70;1.00;;;;;;4970431;28;20416;-54
2023/05/11 09:49:44;;;;;;;7.73;2.17;;;14.80;99.90;;;;;;4953264;28;20766;-54
2023/05/11 09:52:17;;;;;;;6.43;2.20;;;14.60;99.90;;;;;;4970744;28;20388;-54
2023/05/11 09:54:45;;;;;;;6.70;2.58;;;14.60;1.00;;;;;;4970506;28;20388;-54
2023/05/11 09:57:30;;;;;;;6.30;2.05;;;14.50;99.90;;;;;;4970212;28;20419;-55
2023/05/11 09:59:57;;;;;;;8.47;2.70;;;14.90;1.00;;;;;;4970826;28;20441;-55
2023/05/11 10:02:28;;;;;;;6.33;2.50;;;15.00;97.00;;;;;;4970148;28;20396;-55
2023/05/11 10:04:58;;;;;;;6.80;2.47;;;15.20;99.90;;;;;;4970413;28;20396;-54
2023/05/11 10:07:27;;;;;;;6.15;2.38;;;15.40;1.00;;;;;;4969470;28;20838;-54
2023/05/11 10:09:55;;;;;;;6.80;2.50;;;15.60;99.90;;;;;;4970506;28;20430;-55
2023/05/11 10:12:22;;;;;;;6.43;2.20;;;15.80;99.90;;;;;;4969796;28;20435;-54
2023/05/11 10:14:51;;;;;;;7.22;2.55;;;15.70;99.90;;;;;;4970030;28;20897;-54
2023/05/11 10:17:17;;;;;;;7.13;2.00;;;15.30;99.90;;;;;;4969527;28;20418;-55
2023/05/11 10:19:44;;;;;;;6.32;2.40;;;15.40;99.90;;;;;;4973858;28;20388;-54
2023/05/11 10:22:11;;;;;;;6.95;2.22;;;15.40;1.00;;;;;;4973935;28;20444;-54
2023/05/11 10:24:37;;;;;;;6.40;2.33;;;15.30;99.90;;;;;;4973280;28;20387;-54
2023/05/11 10:27:03;;;;;;;6.80;2.40;;;15.10;1.00;;;;;;4974059;28;20527;-54
2023/05/11 10:29:30;;;;;;;6.57;2.00;;;14.90;99.90;;;;;;4973030;28;20412;-54
2023/05/11 10:31:57;;;;;;;6.70;2.50;;;14.70;99.90;;;;;;4973806;28;20908;-54
2023/05/11 10:34:23;;;;;;;7.82;2.88;;;14.90;99.90;;;;;;4972595;28;20867;-54
2023/05/11 10:36:51;;;;;;;6.55;2.40;;;15.10;99.90;;;;;;4973575;28;20388;-53
2023/05/11 10:39:16;;;;;;;8.80;2.45;;;15.00;99.90;;;;;;4973096;28;20486;-54
2023/05/11 10:41:45;;;;;;;7.40;2.50;;;15.20;99.90;;;;;;4973293;28;20802;-54
2023/05/11 10:44:47;;;;;;;6.82;2.70;;;15.10;91.70;;;;;;4973685;28;20849;-54
2023/05/11 10:48:00;;;;;;;6.07;2.40;;;15.40;8.90;;;;;;4973510;28;20461;-54
2023/05/11 10:51:04;;;;;;;9.05;3.08;;;15.30;99.90;;;;;;4965320;28;20408;-54
2023/05/11 10:53:51;;;;;;;8.27;3.05;;;15.30;99.90;;;;;;4973192;28;20499;-54
2023/05/11 10:56:34;;;;;;;8.20;2.55;;;15.50;99.90;;;;;;4972920;28;20388;-54
2023/05/11 10:59:23;;;;;;;6.85;2.80;;;15.50;99.90;;;;;;4973524;28;20396;-54
2023/05/11 11:01:57;;;;;;;8.25;2.90;;;15.60;1.00;;;;;;4973355;28;20431;-54
2023/05/11 11:04:24;;;;;;;7.90;2.50;;;15.50;1.00;;;;;;4972265;28;20430;-54
2023/05/11 11:07:06;;;;;;;7.47;3.00;;;15.70;1.00;;;;;;4972803;28;21224;-54
2023/05/11 11:09:51;;;;;;;9.10;2.80;;;15.80;99.90;;;;;;4972579;28;20488;-54
2023/05/11 11:12:17;;;;;;;10.13;2.80;;;15.80;99.90;;;;;;4972840;28;20380;-54
2023/05/11 11:15:01;;;;;;;7.70;2.95;;;15.70;1.00;;;;;;4972676;28;20732;-54
2023/05/11 11:17:30;;;;;;;6.40;2.40;;;15.90;1.00;;;;;;4972335;28;20419;-54
2023/05/11 11:20:00;;;;;;;7.43;2.57;;;16.00;1.00;;;;;;4972957;28;20392;-54
2023/05/11 11:22:45;;;;;;;7.18;2.78;;;15.90;99.90;;;;;;4972306;28;20388;-54
2023/05/11 11:25:12;;;;;;;6.57;2.60;;;15.80;1.00;;;;;;4972877;28;20450;-54
2023/05/11 11:27:44;;;;;;;6.55;2.75;;;15.90;99.90;;;;;;4972738;28;20431;-54
2023/05/11 11:30:23;;;;;;;7.38;2.90;;;16.20;1.00;;;;;;4971755;28;20495;-54
2023/05/11 11:32:54;;;;;;;6.80;2.70;;;16.30;1.00;;;;;;4973034;28;20389;-54
2023/05/11 11:35:38;;;;;;;7.60;2.70;;;16.30;1.00;;;;;;4971567;28;20912;-54
2023/05/11 11:38:05;;;;;;;7.35;2.50;;;16.30;99.90;;;;;;4972817;28;20871;-54
2023/05/11 11:40:39;;;;;;;6.73;2.93;;;16.50;1.00;;;;;;4968918;28;20404;-54
2023/05/11 11:43:13;;;;;;;7.50;2.20;;;16.50;51.80;;;;;;4971084;28;20507;-54
2023/05/11 11:45:55;;;;;;;6.00;2.20;;;16.30;1.00;;;;;;4971748;28;20392;-54
2023/05/11 11:48:27;;;;;;;7.00;2.30;;;16.20;89.00;;;;;;4970090;28;20431;-54
2023/05/11 11:51:02;;;;;;;7.00;2.60;;;16.30;99.90;;;;;;4970545;28;20924;-54
2023/05/11 11:53:36;;;;;;;7.55;2.80;;;16.30;99.90;;;;;;4961913;28;20420;-54
2023/05/11 11:56:27;;;;;;;5.80;1.80;;;16.40;99.90;;;;;;4962876;28;20384;-54
2023/05/11 11:58:57;;;;;;;7.00;1.60;;;16.70;1.00;;;;;;4967128;28;20881;-54
2023/05/11 12:01:26;;;;;;;7.78;2.20;;;16.70;99.90;;;;;;4971275;28;20455;-54
2023/05/11 12:04:29;;;;;;;8.50;2.40;;;16.60;99.90;;;;;;4969767;28;21015;-54
2023/05/11 12:06:56;;;;;;;6.03;1.90;;;16.70;99.90;;;;;;4958164;28;20785;-55
2023/05/11 12:09:22;;;;;;;5.60;1.70;;;16.70;99.90;;;;;;4970143;28;20446;-55
2023/05/11 12:11:50;;;;;;;5.30;1.40;;;16.90;99.90;;;;;;4971946;28;20419;-54
2023/05/11 12:14:15;;;;;;;5.35;1.38;;;16.90;99.90;;;;;;4969964;28;20420;-55
2023/05/11 12:16:41;;;;;;;5.30;1.40;;;17.20;99.90;;;;;;4970106;28;20810;-54
2023/05/11 12:19:07;;;;;;;5.30;1.40;;;17.30;99.90;;;;;;4970922;28;20498;-54
2023/05/11 12:21:32;;;;;;;6.07;1.60;;;17.30;24.00;;;;;;4969996;28;20400;-54
2023/05/11 12:24:03;;;;;;;5.50;1.60;;;17.20;28.50;;;;;;4971762;28;20420;-54
2023/05/11 12:26:30;;;;;;;4.88;1.30;;;17.00;99.90;;;;;;4970851;28;20475;-54
2023/05/11 12:29:15;;;;;;;5.40;1.70;;;17.40;22.80;;;;;;4970992;28;20420;-54
2023/05/11 12:31:42;;;;;;;5.40;1.38;;;17.50;1.00;;;;;;4970129;28;20412;-54
2023/05/11 12:34:19;;;;;;;5.50;1.50;;;17.00;1.00;;;;;;4971601;28;20495;-54
2023/05/11 12:36:46;;;;;;;5.28;1.23;;;17.30;1.00;;;;;;4971326;28;20391;-54
2023/05/11 12:39:17;;;;;;;4.53;0.90;;;17.60;1.00;;;;;;4970597;28;20512;-55
2023/05/11 12:41:43;;;;;;;5.07;0.90;;;17.70;1.00;;;;;;4969718;28;20400;-55
2023/05/11 12:44:10;;;;;;;4.93;0.90;;;17.60;1.00;;;;;;4970289;28;20427;-54
2023/05/11 12:46:36;;;;;;;4.90;1.00;;;17.40;1.00;;;;;;4962618;28;20435;-54
2023/05/11 12:49:02;;;;;;;5.10;1.10;;;17.20;1.00;;;;;;4968961;28;20408;-55
2023/05/11 12:51:47;;;;;;;4.90;0.80;;;17.40;1.00;;;;;;4968840;28;20482;-55
2023/05/11 12:54:31;;;;;;;4.90;1.23;;;17.40;1.00;;;;;;4971023;28;20427;-54
2023/05/11 12:56:58;;;;;;;6.10;1.40;;;17.10;1.00;;;;;;4958059;28;20418;-54
2023/05/11 12:59:29;;;;;;;6.18;1.33;;;17.10;1.00;;;;;;4967724;28;20531;-54